Leadington, Missouri
Current Conditions -  °F | °C
As of 7:55 PM on Monday 24 Nov 2014 (Local Time) from KFAM Reporting Station
Scattered Clouds Scattered Clouds  
Wind Chill: 36°   Ceiling: Unl
Heat Index: 36°   Visibility: 10mi
Dew Point: 28°   Wind: 0mph
Humidity: 75%   Direction: NA
Pressure: 29.95"   Gusts: NA
Location:  37.8386°N, 90.5648°W
Report Text: KFAM 250155Z AUTO 00000KT 10SM SCT060 02/M02 A2995 RMK AO1
Loading
Personal Weather Stations






























Interactive Weather Map New forecast layout! Learn more

10-Day Weather Forecast

Advertisements
Track Severe Weather on mobile